sensor_id;sensor_type;location;lat;lon;timestamp;P1;durP1;ratioP1;P2;durP2;ratioP2
55330;SDS011;58851;42.984;20.336;2023-04-23T00:02:10;39.75;;;26.27;;
55330;SDS011;58851;42.984;20.336;2023-04-23T00:04:37;40.97;;;25.20;;
55330;SDS011;58851;42.984;20.336;2023-04-23T00:07:03;40.00;;;26.17;;
55330;SDS011;58851;42.984;20.336;2023-04-23T00:09:30;39.47;;;27.38;;
55330;SDS011;58851;42.984;20.336;2023-04-23T00:11:57;35.13;;;25.98;;
55330;SDS011;58851;42.984;20.336;2023-04-23T00:14:24;44.63;;;31.23;;
55330;SDS011;58851;42.984;20.336;2023-04-23T00:16:51;48.05;;;33.92;;
55330;SDS011;58851;42.984;20.336;2023-04-23T00:19:17;43.30;;;32.22;;
55330;SDS011;58851;42.984;20.336;2023-04-23T00:21:43;37.17;;;25.90;;
55330;SDS011;58851;42.984;20.336;2023-04-23T00:24:09;36.20;;;24.20;;
55330;SDS011;58851;42.984;20.336;2023-04-23T00:26:35;34.63;;;21.63;;
55330;SDS011;58851;42.984;20.336;2023-04-23T00:29:01;29.85;;;18.77;;
55330;SDS011;58851;42.984;20.336;2023-04-23T00:31:26;59.08;;;33.90;;
55330;SDS011;58851;42.984;20.336;2023-04-23T00:33:52;105.20;;;60.63;;
55330;SDS011;58851;42.984;20.336;2023-04-23T00:36:18;108.38;;;60.03;;
55330;SDS011;58851;42.984;20.336;2023-04-23T00:38:44;88.97;;;45.38;;
55330;SDS011;58851;42.984;20.336;2023-04-23T00:41:10;80.10;;;46.53;;
55330;SDS011;58851;42.984;20.336;2023-04-23T00:43:36;62.78;;;40.15;;
55330;SDS011;58851;42.984;20.336;2023-04-23T00:46:02;57.80;;;37.45;;
55330;SDS011;58851;42.984;20.336;2023-04-23T00:48:29;57.15;;;35.90;;
55330;SDS011;58851;42.984;20.336;2023-04-23T00:50:58;36.20;;;25.63;;
55330;SDS011;58851;42.984;20.336;2023-04-23T00:53:27;31.98;;;24.33;;
55330;SDS011;58851;42.984;20.336;2023-04-23T00:55:53;40.85;;;26.42;;
55330;SDS011;58851;42.984;20.336;2023-04-23T00:58:19;44.17;;;28.30;;
55330;SDS011;58851;42.984;20.336;2023-04-23T01:00:45;51.67;;;33.53;;
55330;SDS011;58851;42.984;20.336;2023-04-23T01:03:13;89.63;;;50.42;;
55330;SDS011;58851;42.984;20.336;2023-04-23T01:05:46;68.38;;;42.08;;
55330;SDS011;58851;42.984;20.336;2023-04-23T01:08:14;39.65;;;26.95;;
55330;SDS011;58851;42.984;20.336;2023-04-23T01:10:44;34.35;;;23.05;;
55330;SDS011;58851;42.984;20.336;2023-04-23T01:13:11;38.92;;;24.08;;
55330;SDS011;58851;42.984;20.336;2023-04-23T01:15:38;30.50;;;22.70;;
55330;SDS011;58851;42.984;20.336;2023-04-23T01:18:04;28.83;;;20.48;;
55330;SDS011;58851;42.984;20.336;2023-04-23T01:20:32;32.40;;;20.25;;
55330;SDS011;58851;42.984;20.336;2023-04-23T01:22:59;42.53;;;22.73;;
55330;SDS011;58851;42.984;20.336;2023-04-23T01:25:26;47.17;;;28.88;;
55330;SDS011;58851;42.984;20.336;2023-04-23T01:27:52;42.05;;;26.13;;
55330;SDS011;58851;42.984;20.336;2023-04-23T01:30:18;37.92;;;24.67;;
55330;SDS011;58851;42.984;20.336;2023-04-23T01:32:46;43.47;;;27.55;;
55330;SDS011;58851;42.984;20.336;2023-04-23T01:35:12;55.83;;;34.10;;
55330;SDS011;58851;42.984;20.336;2023-04-23T01:37:38;49.53;;;31.58;;
55330;SDS011;58851;42.984;20.336;2023-04-23T01:40:05;25.35;;;17.27;;
55330;SDS011;58851;42.984;20.336;2023-04-23T01:42:32;22.25;;;16.08;;
55330;SDS011;58851;42.984;20.336;2023-04-23T01:44:58;22.88;;;15.00;;
55330;SDS011;58851;42.984;20.336;2023-04-23T01:47:25;26.73;;;18.50;;
55330;SDS011;58851;42.984;20.336;2023-04-23T01:49:51;26.35;;;20.08;;
55330;SDS011;58851;42.984;20.336;2023-04-23T01:52:17;28.20;;;20.15;;
55330;SDS011;58851;42.984;20.336;2023-04-23T01:54:42;38.08;;;25.55;;
55330;SDS011;58851;42.984;20.336;2023-04-23T01:57:08;31.95;;;20.88;;
55330;SDS011;58851;42.984;20.336;2023-04-23T01:59:35;26.90;;;20.80;;
55330;SDS011;58851;42.984;20.336;2023-04-23T02:02:02;41.17;;;23.92;;
55330;SDS011;58851;42.984;20.336;2023-04-23T02:04:27;34.13;;;23.73;;
55330;SDS011;58851;42.984;20.336;2023-04-23T02:06:54;33.08;;;22.70;;
55330;SDS011;58851;42.984;20.336;2023-04-23T02:09:20;45.33;;;33.35;;
55330;SDS011;58851;42.984;20.336;2023-04-23T02:11:46;45.47;;;31.92;;
55330;SDS011;58851;42.984;20.336;2023-04-23T02:14:12;52.83;;;32.35;;
55330;SDS011;58851;42.984;20.336;2023-04-23T02:16:38;37.70;;;29.20;;
55330;SDS011;58851;42.984;20.336;2023-04-23T02:19:03;42.42;;;27.23;;
55330;SDS011;58851;42.984;20.336;2023-04-23T02:21:30;39.38;;;26.10;;
55330;SDS011;58851;42.984;20.336;2023-04-23T02:23:56;41.35;;;30.80;;
55330;SDS011;58851;42.984;20.336;2023-04-23T02:26:21;38.83;;;28.73;;
55330;SDS011;58851;42.984;20.336;2023-04-23T02:28:48;40.45;;;28.05;;
55330;SDS011;58851;42.984;20.336;2023-04-23T02:31:15;37.28;;;24.80;;
55330;SDS011;58851;42.984;20.336;2023-04-23T02:33:41;35.95;;;22.55;;
55330;SDS011;58851;42.984;20.336;2023-04-23T02:36:07;50.20;;;32.35;;
55330;SDS011;58851;42.984;20.336;2023-04-23T02:38:35;69.93;;;38.78;;
55330;SDS011;58851;42.984;20.336;2023-04-23T02:41:01;81.70;;;48.92;;
55330;SDS011;58851;42.984;20.336;2023-04-23T02:43:27;63.83;;;41.75;;
55330;SDS011;58851;42.984;20.336;2023-04-23T02:45:53;63.92;;;43.72;;
55330;SDS011;58851;42.984;20.336;2023-04-23T02:48:18;66.53;;;42.30;;
55330;SDS011;58851;42.984;20.336;2023-04-23T02:50:46;53.25;;;34.35;;
55330;SDS011;58851;42.984;20.336;2023-04-23T02:53:12;41.42;;;26.60;;
55330;SDS011;58851;42.984;20.336;2023-04-23T02:55:37;37.25;;;25.60;;
55330;SDS011;58851;42.984;20.336;2023-04-23T02:58:03;41.72;;;26.70;;
55330;SDS011;58851;42.984;20.336;2023-04-23T03:00:29;40.05;;;25.20;;
55330;SDS011;58851;42.984;20.336;2023-04-23T03:02:55;35.10;;;23.38;;
55330;SDS011;58851;42.984;20.336;2023-04-23T03:05:21;39.35;;;25.35;;
55330;SDS011;58851;42.984;20.336;2023-04-23T03:07:47;31.98;;;22.17;;
55330;SDS011;58851;42.984;20.336;2023-04-23T03:10:13;34.58;;;23.77;;
55330;SDS011;58851;42.984;20.336;2023-04-23T03:12:39;29.95;;;20.50;;
55330;SDS011;58851;42.984;20.336;2023-04-23T03:15:05;29.90;;;20.73;;
55330;SDS011;58851;42.984;20.336;2023-04-23T03:17:31;29.27;;;19.63;;
55330;SDS011;58851;42.984;20.336;2023-04-23T03:19:57;27.20;;;19.58;;
55330;SDS011;58851;42.984;20.336;2023-04-23T03:22:22;34.58;;;21.67;;
55330;SDS011;58851;42.984;20.336;2023-04-23T03:24:48;34.22;;;22.38;;
55330;SDS011;58851;42.984;20.336;2023-04-23T03:27:14;36.90;;;22.50;;
55330;SDS011;58851;42.984;20.336;2023-04-23T03:29:40;32.95;;;22.80;;
55330;SDS011;58851;42.984;20.336;2023-04-23T03:32:05;40.22;;;26.88;;
55330;SDS011;58851;42.984;20.336;2023-04-23T03:34:31;36.00;;;25.80;;
55330;SDS011;58851;42.984;20.336;2023-04-23T03:36:57;34.10;;;22.15;;
55330;SDS011;58851;42.984;20.336;2023-04-23T03:39:24;30.80;;;21.58;;
55330;SDS011;58851;42.984;20.336;2023-04-23T03:41:50;32.03;;;20.42;;
55330;SDS011;58851;42.984;20.336;2023-04-23T03:44:15;32.38;;;22.60;;
55330;SDS011;58851;42.984;20.336;2023-04-23T03:46:41;30.42;;;21.92;;
55330;SDS011;58851;42.984;20.336;2023-04-23T03:49:07;45.88;;;27.17;;
55330;SDS011;58851;42.984;20.336;2023-04-23T03:51:33;44.03;;;29.17;;
55330;SDS011;58851;42.984;20.336;2023-04-23T03:53:59;33.00;;;26.63;;
55330;SDS011;58851;42.984;20.336;2023-04-23T03:56:25;34.20;;;22.17;;
55330;SDS011;58851;42.984;20.336;2023-04-23T03:58:50;26.77;;;18.95;;
55330;SDS011;58851;42.984;20.336;2023-04-23T04:01:16;30.60;;;19.08;;
55330;SDS011;58851;42.984;20.336;2023-04-23T04:03:42;29.13;;;20.17;;
55330;SDS011;58851;42.984;20.336;2023-04-23T04:06:08;29.02;;;19.95;;
55330;SDS011;58851;42.984;20.336;2023-04-23T04:08:34;33.13;;;24.83;;
55330;SDS011;58851;42.984;20.336;2023-04-23T04:10:59;31.08;;;21.02;;
55330;SDS011;58851;42.984;20.336;2023-04-23T04:13:25;27.50;;;19.85;;
55330;SDS011;58851;42.984;20.336;2023-04-23T04:15:51;29.98;;;18.67;;
55330;SDS011;58851;42.984;20.336;2023-04-23T04:18:17;29.27;;;21.30;;
55330;SDS011;58851;42.984;20.336;2023-04-23T04:20:42;32.05;;;20.63;;
55330;SDS011;58851;42.984;20.336;2023-04-23T04:23:09;28.33;;;18.30;;
55330;SDS011;58851;42.984;20.336;2023-04-23T04:25:35;30.45;;;20.25;;
55330;SDS011;58851;42.984;20.336;2023-04-23T04:28:04;34.42;;;24.20;;
55330;SDS011;58851;42.984;20.336;2023-04-23T04:30:32;29.98;;;22.83;;
55330;SDS011;58851;42.984;20.336;2023-04-23T04:32:58;23.55;;;18.83;;
55330;SDS011;58851;42.984;20.336;2023-04-23T04:35:25;23.75;;;18.70;;
55330;SDS011;58851;42.984;20.336;2023-04-23T04:37:52;24.45;;;17.95;;
55330;SDS011;58851;42.984;20.336;2023-04-23T04:40:18;24.25;;;17.15;;
55330;SDS011;58851;42.984;20.336;2023-04-23T04:42:44;24.10;;;18.52;;
55330;SDS011;58851;42.984;20.336;2023-04-23T04:45:10;27.95;;;19.23;;
55330;SDS011;58851;42.984;20.336;2023-04-23T04:47:36;28.35;;;20.10;;
55330;SDS011;58851;42.984;20.336;2023-04-23T04:50:03;27.55;;;20.20;;
55330;SDS011;58851;42.984;20.336;2023-04-23T04:52:29;33.05;;;22.45;;
55330;SDS011;58851;42.984;20.336;2023-04-23T04:54:55;25.15;;;19.60;;
55330;SDS011;58851;42.984;20.336;2023-04-23T04:57:21;30.77;;;19.73;;
55330;SDS011;58851;42.984;20.336;2023-04-23T04:59:47;27.63;;;19.73;;
55330;SDS011;58851;42.984;20.336;2023-04-23T05:02:14;28.42;;;19.20;;
55330;SDS011;58851;42.984;20.336;2023-04-23T05:04:40;31.23;;;22.15;;
55330;SDS011;58851;42.984;20.336;2023-04-23T05:07:06;35.35;;;23.45;;
55330;SDS011;58851;42.984;20.336;2023-04-23T05:09:32;38.25;;;25.20;;
55330;SDS011;58851;42.984;20.336;2023-04-23T05:11:57;37.47;;;25.27;;
55330;SDS011;58851;42.984;20.336;2023-04-23T05:14:23;38.65;;;25.42;;
55330;SDS011;58851;42.984;20.336;2023-04-23T05:16:50;29.77;;;23.20;;
55330;SDS011;58851;42.984;20.336;2023-04-23T05:19:16;36.30;;;25.80;;
55330;SDS011;58851;42.984;20.336;2023-04-23T05:21:42;41.05;;;27.23;;
55330;SDS011;58851;42.984;20.336;2023-04-23T05:24:08;38.97;;;24.63;;
55330;SDS011;58851;42.984;20.336;2023-04-23T05:26:33;40.75;;;26.25;;
55330;SDS011;58851;42.984;20.336;2023-04-23T05:28:59;41.95;;;26.88;;
55330;SDS011;58851;42.984;20.336;2023-04-23T05:31:25;37.20;;;24.77;;
55330;SDS011;58851;42.984;20.336;2023-04-23T05:33:51;34.60;;;22.27;;
55330;SDS011;58851;42.984;20.336;2023-04-23T05:36:17;28.65;;;21.73;;
55330;SDS011;58851;42.984;20.336;2023-04-23T05:38:43;35.35;;;26.23;;
55330;SDS011;58851;42.984;20.336;2023-04-23T05:41:09;74.18;;;48.53;;
55330;SDS011;58851;42.984;20.336;2023-04-23T05:43:35;49.55;;;33.15;;
55330;SDS011;58851;42.984;20.336;2023-04-23T05:46:01;52.05;;;36.42;;
55330;SDS011;58851;42.984;20.336;2023-04-23T05:48:28;70.25;;;49.45;;
55330;SDS011;58851;42.984;20.336;2023-04-23T05:50:54;74.15;;;49.42;;
55330;SDS011;58851;42.984;20.336;2023-04-23T05:53:20;69.20;;;46.67;;
55330;SDS011;58851;42.984;20.336;2023-04-23T05:55:46;73.70;;;50.20;;
55330;SDS011;58851;42.984;20.336;2023-04-23T05:58:12;65.40;;;44.55;;
55330;SDS011;58851;42.984;20.336;2023-04-23T06:00:38;68.00;;;43.72;;
55330;SDS011;58851;42.984;20.336;2023-04-23T06:03:04;57.90;;;41.70;;
55330;SDS011;58851;42.984;20.336;2023-04-23T06:05:31;54.35;;;35.40;;
55330;SDS011;58851;42.984;20.336;2023-04-23T06:07:57;38.80;;;30.02;;
55330;SDS011;58851;42.984;20.336;2023-04-23T06:10:22;39.85;;;27.58;;
55330;SDS011;58851;42.984;20.336;2023-04-23T06:12:49;33.90;;;25.08;;
55330;SDS011;58851;42.984;20.336;2023-04-23T06:15:14;31.95;;;24.13;;
55330;SDS011;58851;42.984;20.336;2023-04-23T06:17:40;30.73;;;22.77;;
55330;SDS011;58851;42.984;20.336;2023-04-23T06:20:06;32.22;;;23.73;;
55330;SDS011;58851;42.984;20.336;2023-04-23T06:22:34;40.92;;;32.58;;
55330;SDS011;58851;42.984;20.336;2023-04-23T06:25:00;44.88;;;32.60;;
55330;SDS011;58851;42.984;20.336;2023-04-23T06:27:26;36.58;;;25.02;;
55330;SDS011;58851;42.984;20.336;2023-04-23T06:29:51;36.13;;;24.02;;
55330;SDS011;58851;42.984;20.336;2023-04-23T06:32:18;37.75;;;26.83;;
55330;SDS011;58851;42.984;20.336;2023-04-23T06:34:43;40.50;;;23.95;;
55330;SDS011;58851;42.984;20.336;2023-04-23T06:37:10;37.20;;;25.02;;
55330;SDS011;58851;42.984;20.336;2023-04-23T06:39:36;34.70;;;24.42;;
55330;SDS011;58851;42.984;20.336;2023-04-23T06:42:02;36.85;;;28.75;;
55330;SDS011;58851;42.984;20.336;2023-04-23T06:44:28;35.50;;;24.35;;
55330;SDS011;58851;42.984;20.336;2023-04-23T06:46:54;27.95;;;20.80;;
55330;SDS011;58851;42.984;20.336;2023-04-23T06:49:20;32.42;;;20.60;;
55330;SDS011;58851;42.984;20.336;2023-04-23T06:51:46;31.40;;;23.52;;
55330;SDS011;58851;42.984;20.336;2023-04-23T06:54:12;33.75;;;24.48;;
55330;SDS011;58851;42.984;20.336;2023-04-23T06:56:38;31.77;;;21.15;;
55330;SDS011;58851;42.984;20.336;2023-04-23T06:59:03;35.70;;;23.52;;
55330;SDS011;58851;42.984;20.336;2023-04-23T07:01:30;26.80;;;20.38;;
55330;SDS011;58851;42.984;20.336;2023-04-23T07:03:56;28.17;;;20.17;;
55330;SDS011;58851;42.984;20.336;2023-04-23T07:06:22;30.02;;;18.38;;
55330;SDS011;58851;42.984;20.336;2023-04-23T07:08:48;31.20;;;22.13;;
55330;SDS011;58851;42.984;20.336;2023-04-23T07:11:14;29.55;;;20.42;;
55330;SDS011;58851;42.984;20.336;2023-04-23T07:13:39;29.98;;;19.48;;
55330;SDS011;58851;42.984;20.336;2023-04-23T07:16:06;33.03;;;19.98;;
55330;SDS011;58851;42.984;20.336;2023-04-23T07:18:32;26.35;;;18.10;;
55330;SDS011;58851;42.984;20.336;2023-04-23T07:20:57;28.90;;;21.33;;
55330;SDS011;58851;42.984;20.336;2023-04-23T07:23:23;26.60;;;19.05;;
55330;SDS011;58851;42.984;20.336;2023-04-23T07:25:49;26.88;;;18.85;;
55330;SDS011;58851;42.984;20.336;2023-04-23T07:28:15;35.92;;;28.98;;
55330;SDS011;58851;42.984;20.336;2023-04-23T07:30:40;32.00;;;22.35;;
55330;SDS011;58851;42.984;20.336;2023-04-23T07:33:06;27.23;;;21.08;;
55330;SDS011;58851;42.984;20.336;2023-04-23T07:35:32;30.25;;;18.90;;
55330;SDS011;58851;42.984;20.336;2023-04-23T07:37:58;22.05;;;17.23;;
55330;SDS011;58851;42.984;20.336;2023-04-23T07:40:25;23.20;;;15.10;;
55330;SDS011;58851;42.984;20.336;2023-04-23T07:42:50;19.98;;;16.08;;
55330;SDS011;58851;42.984;20.336;2023-04-23T07:45:17;21.23;;;14.65;;
55330;SDS011;58851;42.984;20.336;2023-04-23T07:47:43;24.95;;;15.20;;
55330;SDS011;58851;42.984;20.336;2023-04-23T07:50:10;22.30;;;14.90;;
55330;SDS011;58851;42.984;20.336;2023-04-23T07:52:36;22.80;;;16.17;;
55330;SDS011;58851;42.984;20.336;2023-04-23T07:55:02;25.10;;;16.55;;
55330;SDS011;58851;42.984;20.336;2023-04-23T07:57:29;18.88;;;15.32;;
55330;SDS011;58851;42.984;20.336;2023-04-23T07:59:55;27.58;;;19.55;;
55330;SDS011;58851;42.984;20.336;2023-04-23T08:02:20;20.38;;;15.95;;
55330;SDS011;58851;42.984;20.336;2023-04-23T08:04:50;22.73;;;16.08;;
55330;SDS011;58851;42.984;20.336;2023-04-23T08:07:16;22.80;;;15.73;;
55330;SDS011;58851;42.984;20.336;2023-04-23T08:09:42;21.48;;;15.18;;
55330;SDS011;58851;42.984;20.336;2023-04-23T08:12:08;20.20;;;14.43;;
55330;SDS011;58851;42.984;20.336;2023-04-23T08:14:34;19.13;;;12.00;;
55330;SDS011;58851;42.984;20.336;2023-04-23T08:17:00;19.25;;;14.20;;
55330;SDS011;58851;42.984;20.336;2023-04-23T08:19:26;21.25;;;14.20;;
55330;SDS011;58851;42.984;20.336;2023-04-23T08:21:55;23.08;;;15.70;;
55330;SDS011;58851;42.984;20.336;2023-04-23T08:24:21;18.33;;;12.90;;
55330;SDS011;58851;42.984;20.336;2023-04-23T08:26:47;17.67;;;13.05;;
55330;SDS011;58851;42.984;20.336;2023-04-23T08:29:13;14.00;;;10.95;;
55330;SDS011;58851;42.984;20.336;2023-04-23T08:31:39;19.15;;;12.32;;
55330;SDS011;58851;42.984;20.336;2023-04-23T08:34:05;21.77;;;13.90;;
55330;SDS011;58851;42.984;20.336;2023-04-23T08:36:31;15.35;;;10.43;;
55330;SDS011;58851;42.984;20.336;2023-04-23T08:38:57;15.50;;;10.55;;
55330;SDS011;58851;42.984;20.336;2023-04-23T08:41:26;17.38;;;11.95;;
55330;SDS011;58851;42.984;20.336;2023-04-23T08:44:06;18.35;;;12.05;;
55330;SDS011;58851;42.984;20.336;2023-04-23T08:46:32;9.93;;;7.93;;
55330;SDS011;58851;42.984;20.336;2023-04-23T08:49:01;16.30;;;8.85;;
55330;SDS011;58851;42.984;20.336;2023-04-23T08:51:28;17.08;;;8.90;;
55330;SDS011;58851;42.984;20.336;2023-04-23T08:53:58;10.93;;;7.53;;
55330;SDS011;58851;42.984;20.336;2023-04-23T08:56:27;8.38;;;5.97;;
55330;SDS011;58851;42.984;20.336;2023-04-23T08:58:54;11.25;;;6.65;;
55330;SDS011;58851;42.984;20.336;2023-04-23T09:01:21;11.20;;;6.28;;
55330;SDS011;58851;42.984;20.336;2023-04-23T09:03:46;12.35;;;6.05;;
55330;SDS011;58851;42.984;20.336;2023-04-23T09:06:13;8.88;;;5.13;;
55330;SDS011;58851;42.984;20.336;2023-04-23T09:08:39;9.75;;;4.95;;
55330;SDS011;58851;42.984;20.336;2023-04-23T09:11:05;8.13;;;5.22;;
55330;SDS011;58851;42.984;20.336;2023-04-23T09:13:32;11.73;;;6.90;;
55330;SDS011;58851;42.984;20.336;2023-04-23T09:15:59;10.40;;;4.85;;
55330;SDS011;58851;42.984;20.336;2023-04-23T09:18:25;7.88;;;5.47;;
55330;SDS011;58851;42.984;20.336;2023-04-23T09:20:51;10.13;;;5.80;;
55330;SDS011;58851;42.984;20.336;2023-04-23T09:23:17;11.30;;;5.32;;
55330;SDS011;58851;42.984;20.336;2023-04-23T09:25:46;7.80;;;5.22;;
55330;SDS011;58851;42.984;20.336;2023-04-23T09:28:11;12.93;;;5.57;;
55330;SDS011;58851;42.984;20.336;2023-04-23T09:30:42;9.77;;;5.53;;
55330;SDS011;58851;42.984;20.336;2023-04-23T09:33:12;9.23;;;5.75;;
55330;SDS011;58851;42.984;20.336;2023-04-23T09:35:38;11.00;;;6.13;;
55330;SDS011;58851;42.984;20.336;2023-04-23T09:38:06;10.32;;;5.90;;
55330;SDS011;58851;42.984;20.336;2023-04-23T09:40:32;15.20;;;5.78;;
55330;SDS011;58851;42.984;20.336;2023-04-23T09:42:58;13.18;;;6.78;;
55330;SDS011;58851;42.984;20.336;2023-04-23T09:45:28;9.05;;;5.65;;
55330;SDS011;58851;42.984;20.336;2023-04-23T09:47:55;12.32;;;5.28;;
55330;SDS011;58851;42.984;20.336;2023-04-23T09:50:32;12.32;;;7.03;;
55330;SDS011;58851;42.984;20.336;2023-04-23T09:53:02;15.68;;;10.82;;
55330;SDS011;58851;42.984;20.336;2023-04-23T09:55:33;10.82;;;6.68;;
55330;SDS011;58851;42.984;20.336;2023-04-23T09:58:04;14.25;;;8.43;;
55330;SDS011;58851;42.984;20.336;2023-04-23T10:00:32;18.02;;;7.22;;
55330;SDS011;58851;42.984;20.336;2023-04-23T10:03:00;14.25;;;9.18;;
55330;SDS011;58851;42.984;20.336;2023-04-23T10:05:26;9.48;;;6.68;;
55330;SDS011;58851;42.984;20.336;2023-04-23T10:07:53;10.10;;;7.15;;
55330;SDS011;58851;42.984;20.336;2023-04-23T10:10:21;10.77;;;6.78;;
55330;SDS011;58851;42.984;20.336;2023-04-23T10:12:47;11.60;;;6.22;;
55330;SDS011;58851;42.984;20.336;2023-04-23T10:15:17;16.30;;;5.97;;
55330;SDS011;58851;42.984;20.336;2023-04-23T10:17:43;16.77;;;9.48;;
55330;SDS011;58851;42.984;20.336;2023-04-23T10:20:13;11.10;;;7.15;;
55330;SDS011;58851;42.984;20.336;2023-04-23T10:22:41;24.02;;;20.83;;
55330;SDS011;58851;42.984;20.336;2023-04-23T10:25:10;12.23;;;9.40;;
55330;SDS011;58851;42.984;20.336;2023-04-23T10:27:37;11.35;;;8.18;;
55330;SDS011;58851;42.984;20.336;2023-04-23T10:30:05;12.30;;;9.10;;
55330;SDS011;58851;42.984;20.336;2023-04-23T10:32:34;19.30;;;10.68;;
55330;SDS011;58851;42.984;20.336;2023-04-23T10:35:01;20.55;;;11.82;;
55330;SDS011;58851;42.984;20.336;2023-04-23T10:37:27;13.13;;;7.40;;
55330;SDS011;58851;42.984;20.336;2023-04-23T10:39:54;13.80;;;7.93;;
55330;SDS011;58851;42.984;20.336;2023-04-23T10:42:25;19.80;;;10.75;;
55330;SDS011;58851;42.984;20.336;2023-04-23T10:44:54;9.13;;;5.85;;
55330;SDS011;58851;42.984;20.336;2023-04-23T10:47:24;9.15;;;5.07;;
55330;SDS011;58851;42.984;20.336;2023-04-23T10:49:50;8.00;;;5.10;;
55330;SDS011;58851;42.984;20.336;2023-04-23T10:52:17;13.98;;;6.25;;
55330;SDS011;58851;42.984;20.336;2023-04-23T10:54:46;7.50;;;4.28;;
55330;SDS011;58851;42.984;20.336;2023-04-23T10:57:13;9.07;;;5.55;;
55330;SDS011;58851;42.984;20.336;2023-04-23T10:59:40;14.13;;;6.82;;
55330;SDS011;58851;42.984;20.336;2023-04-23T11:02:19;13.05;;;6.65;;
55330;SDS011;58851;42.984;20.336;2023-04-23T11:04:54;10.55;;;4.78;;
55330;SDS011;58851;42.984;20.336;2023-04-23T11:07:40;8.52;;;3.70;;
55330;SDS011;58851;42.984;20.336;2023-04-23T11:10:12;5.55;;;3.28;;
55330;SDS011;58851;42.984;20.336;2023-04-23T11:12:39;5.22;;;2.67;;
55330;SDS011;58851;42.984;20.336;2023-04-23T11:15:11;10.00;;;3.50;;
55330;SDS011;58851;42.984;20.336;2023-04-23T11:20:12;7.25;;;4.55;;
55330;SDS011;58851;42.984;20.336;2023-04-23T11:22:46;7.50;;;4.75;;
55330;SDS011;58851;42.984;20.336;2023-04-23T11:25:26;9.25;;;5.00;;
55330;SDS011;58851;42.984;20.336;2023-04-23T11:27:53;10.93;;;4.85;;
55330;SDS011;58851;42.984;20.336;2023-04-23T11:30:21;9.48;;;4.95;;
55330;SDS011;58851;42.984;20.336;2023-04-23T11:32:49;6.07;;;3.60;;
55330;SDS011;58851;42.984;20.336;2023-04-23T11:35:17;30.33;;;17.90;;
55330;SDS011;58851;42.984;20.336;2023-04-23T11:37:45;7.50;;;4.88;;
55330;SDS011;58851;42.984;20.336;2023-04-23T11:40:15;11.90;;;5.88;;
55330;SDS011;58851;42.984;20.336;2023-04-23T11:42:47;6.68;;;3.80;;
55330;SDS011;58851;42.984;20.336;2023-04-23T11:45:24;8.05;;;4.47;;
55330;SDS011;58851;42.984;20.336;2023-04-23T11:47:54;10.60;;;6.28;;
55330;SDS011;58851;42.984;20.336;2023-04-23T11:52:51;7.93;;;5.03;;
55330;SDS011;58851;42.984;20.336;2023-04-23T11:55:18;9.25;;;4.78;;
55330;SDS011;58851;42.984;20.336;2023-04-23T11:57:48;5.72;;;3.90;;
55330;SDS011;58851;42.984;20.336;2023-04-23T12:02:54;8.77;;;4.28;;
55330;SDS011;58851;42.984;20.336;2023-04-23T12:08:04;5.10;;;3.10;;
55330;SDS011;58851;42.984;20.336;2023-04-23T12:10:49;10.38;;;5.60;;
55330;SDS011;58851;42.984;20.336;2023-04-23T12:13:17;5.75;;;3.35;;
55330;SDS011;58851;42.984;20.336;2023-04-23T12:15:49;8.95;;;5.07;;
55330;SDS011;58851;42.984;20.336;2023-04-23T12:18:17;10.55;;;7.00;;
55330;SDS011;58851;42.984;20.336;2023-04-23T12:20:43;30.48;;;18.08;;
55330;SDS011;58851;42.984;20.336;2023-04-23T12:23:10;12.25;;;5.30;;
55330;SDS011;58851;42.984;20.336;2023-04-23T12:25:36;9.40;;;5.75;;
55330;SDS011;58851;42.984;20.336;2023-04-23T12:28:06;15.93;;;8.15;;
55330;SDS011;58851;42.984;20.336;2023-04-23T12:30:33;13.57;;;8.05;;
55330;SDS011;58851;42.984;20.336;2023-04-23T12:38:47;9.18;;;4.05;;
55330;SDS011;58851;42.984;20.336;2023-04-23T12:41:06;7.93;;;4.72;;
55330;SDS011;58851;42.984;20.336;2023-04-23T12:43:32;9.93;;;4.20;;
55330;SDS011;58851;42.984;20.336;2023-04-23T12:45:58;9.43;;;4.93;;
55330;SDS011;58851;42.984;20.336;2023-04-23T12:48:24;10.50;;;5.45;;
55330;SDS011;58851;42.984;20.336;2023-04-23T12:50:50;7.47;;;3.65;;
55330;SDS011;58851;42.984;20.336;2023-04-23T12:53:16;7.40;;;4.70;;
55330;SDS011;58851;42.984;20.336;2023-04-23T12:55:42;6.22;;;3.17;;
55330;SDS011;58851;42.984;20.336;2023-04-23T12:58:09;7.20;;;3.85;;
55330;SDS011;58851;42.984;20.336;2023-04-23T13:00:35;6.63;;;4.32;;
55330;SDS011;58851;42.984;20.336;2023-04-23T13:03:01;7.32;;;4.70;;
55330;SDS011;58851;42.984;20.336;2023-04-23T13:05:27;12.15;;;5.28;;
55330;SDS011;58851;42.984;20.336;2023-04-23T13:07:53;7.75;;;4.90;;
55330;SDS011;58851;42.984;20.336;2023-04-23T13:10:19;12.80;;;6.60;;
55330;SDS011;58851;42.984;20.336;2023-04-23T13:12:44;11.77;;;5.18;;
55330;SDS011;58851;42.984;20.336;2023-04-23T13:15:10;9.85;;;4.53;;
55330;SDS011;58851;42.984;20.336;2023-04-23T13:17:39;10.98;;;5.85;;
55330;SDS011;58851;42.984;20.336;2023-04-23T13:20:05;8.65;;;5.05;;
55330;SDS011;58851;42.984;20.336;2023-04-23T13:22:33;11.65;;;4.72;;
55330;SDS011;58851;42.984;20.336;2023-04-23T13:24:58;6.88;;;4.00;;
55330;SDS011;58851;42.984;20.336;2023-04-23T13:27:25;9.15;;;3.72;;
55330;SDS011;58851;42.984;20.336;2023-04-23T13:29:52;7.68;;;3.63;;
55330;SDS011;58851;42.984;20.336;2023-04-23T13:32:18;8.30;;;3.40;;
55330;SDS011;58851;42.984;20.336;2023-04-23T13:34:44;10.10;;;4.78;;
55330;SDS011;58851;42.984;20.336;2023-04-23T13:37:10;5.75;;;3.55;;
55330;SDS011;58851;42.984;20.336;2023-04-23T13:39:35;6.97;;;3.80;;
55330;SDS011;58851;42.984;20.336;2023-04-23T13:42:02;10.27;;;5.32;;
55330;SDS011;58851;42.984;20.336;2023-04-23T13:44:31;7.53;;;4.18;;
55330;SDS011;58851;42.984;20.336;2023-04-23T13:46:57;8.93;;;5.72;;
55330;SDS011;58851;42.984;20.336;2023-04-23T13:49:26;17.92;;;7.15;;
55330;SDS011;58851;42.984;20.336;2023-04-23T13:51:55;14.40;;;8.55;;
55330;SDS011;58851;42.984;20.336;2023-04-23T13:54:25;9.77;;;5.65;;
55330;SDS011;58851;42.984;20.336;2023-04-23T13:56:54;13.02;;;6.47;;
55330;SDS011;58851;42.984;20.336;2023-04-23T13:59:20;12.50;;;7.82;;
55330;SDS011;58851;42.984;20.336;2023-04-23T14:01:46;11.50;;;6.20;;
55330;SDS011;58851;42.984;20.336;2023-04-23T14:04:15;9.38;;;4.32;;
55330;SDS011;58851;42.984;20.336;2023-04-23T14:06:42;10.43;;;6.40;;
55330;SDS011;58851;42.984;20.336;2023-04-23T14:09:08;8.30;;;4.45;;
55330;SDS011;58851;42.984;20.336;2023-04-23T14:11:34;7.75;;;2.45;;
55330;SDS011;58851;42.984;20.336;2023-04-23T14:14:00;6.05;;;2.47;;
55330;SDS011;58851;42.984;20.336;2023-04-23T14:16:26;12.68;;;4.00;;
55330;SDS011;58851;42.984;20.336;2023-04-23T14:18:52;6.68;;;4.03;;
55330;SDS011;58851;42.984;20.336;2023-04-23T14:21:18;12.68;;;4.80;;
55330;SDS011;58851;42.984;20.336;2023-04-23T14:23:44;10.88;;;3.60;;
55330;SDS011;58851;42.984;20.336;2023-04-23T14:28:56;12.07;;;4.50;;
55330;SDS011;58851;42.984;20.336;2023-04-23T14:31:26;9.55;;;5.07;;
55330;SDS011;58851;42.984;20.336;2023-04-23T14:33:54;12.55;;;5.95;;